Time;durP1;ratioP1;P1;durP2;ratioP2;P2;SDS_P1;SDS_P2;PMS_P1;PMS_P2;Temp;Humidity;BMP_temperature;BMP_pressure;BME280_temperature;BME280_humidity;BME280_pressure;Samples;Min_cycle;Max_cycle;Signal;HPM_P1;HPM_P2
2023/03/13 00:01:27;;;;;;;15.60;3.20;;;8.60;99.90;;;;;;5058449;28;20032;-68
2023/03/13 00:03:54;;;;;;;13.75;3.50;;;8.50;99.90;;;;;;5057949;28;20029;-68
2023/03/13 00:06:21;;;;;;;14.95;2.97;;;8.50;99.90;;;;;;5059109;28;20049;-68
2023/03/13 00:08:47;;;;;;;14.30;3.45;;;8.40;99.90;;;;;;5058139;28;20044;-68
2023/03/13 00:11:14;;;;;;;16.95;3.45;;;8.40;99.90;;;;;;5058131;28;20025;-68
2023/03/13 00:13:41;;;;;;;11.60;2.85;;;8.50;99.90;;;;;;5059057;28;20029;-68
2023/03/13 00:16:11;;;;;;;21.27;4.50;;;8.50;99.90;;;;;;5059154;28;20071;-68
2023/03/13 00:18:37;;;;;;;18.80;3.60;;;8.60;99.90;;;;;;5057942;28;20082;-68
2023/03/13 00:21:05;;;;;;;15.48;3.65;;;8.60;99.90;;;;;;5058030;28;20025;-68
2023/03/13 00:23:32;;;;;;;21.20;3.33;;;8.60;99.90;;;;;;5057488;28;20070;-68
2023/03/13 00:26:00;;;;;;;10.23;3.47;;;8.60;99.90;;;;;;5058876;28;20029;-68
2023/03/13 00:28:30;;;;;;;11.95;3.30;;;8.70;99.90;;;;;;5057805;28;20032;-68
2023/03/13 00:31:10;;;;;;;16.75;3.50;;;8.70;99.90;;;;;;5057756;28;20031;-68
2023/03/13 00:33:39;;;;;;;21.02;3.67;;;8.80;99.90;;;;;;5057680;28;20063;-68
2023/03/13 00:36:08;;;;;;;14.38;3.42;;;8.90;99.90;;;;;;5057761;28;20032;-68
2023/03/13 00:38:34;;;;;;;17.02;3.33;;;8.90;99.90;;;;;;5057964;28;20025;-68
2023/03/13 00:41:01;;;;;;;17.92;3.78;;;8.90;99.90;;;;;;5058086;28;20021;-68
2023/03/13 00:43:27;;;;;;;16.67;2.97;;;8.80;99.90;;;;;;5058204;28;20116;-68
2023/03/13 00:45:53;;;;;;;14.98;3.22;;;8.90;99.90;;;;;;5058093;28;20056;-68
2023/03/13 00:48:18;;;;;;;22.52;3.60;;;8.80;99.90;;;;;;5057474;28;20074;-68
2023/03/13 00:50:44;;;;;;;15.40;3.08;;;8.60;99.90;;;;;;5057463;28;20036;-68
2023/03/13 00:53:09;;;;;;;18.83;4.10;;;8.60;99.90;;;;;;5058498;28;20021;-68
2023/03/13 00:55:35;;;;;;;15.90;2.97;;;8.60;99.90;;;;;;5058090;28;20037;-68
2023/03/13 00:58:00;;;;;;;14.60;2.83;;;8.60;99.90;;;;;;5058231;28;20025;-68
2023/03/13 01:00:26;;;;;;;21.95;4.05;;;8.50;99.90;;;;;;5057169;28;20021;-68
2023/03/13 01:02:51;;;;;;;19.02;3.78;;;8.50;99.90;;;;;;5057242;28;20052;-68
2023/03/13 01:05:17;;;;;;;21.77;4.13;;;8.50;99.90;;;;;;5057090;28;20033;-68
2023/03/13 01:07:42;;;;;;;14.40;2.75;;;8.40;99.90;;;;;;5057039;28;20024;-68
2023/03/13 01:10:09;;;;;;;19.48;3.25;;;8.40;99.90;;;;;;5057039;28;20021;-68
2023/03/13 01:12:34;;;;;;;18.58;3.40;;;8.40;99.90;;;;;;5057184;28;20094;-68
2023/03/13 01:15:00;;;;;;;23.60;3.85;;;8.40;99.90;;;;;;5056880;28;20025;-68
2023/03/13 01:17:25;;;;;;;18.80;2.88;;;8.40;99.90;;;;;;5057207;28;20021;-68
2023/03/13 01:19:55;;;;;;;18.90;2.92;;;8.50;99.90;;;;;;5056787;28;20021;-68
2023/03/13 01:22:20;;;;;;;11.93;2.35;;;8.50;99.90;;;;;;5057628;28;20029;-68
2023/03/13 01:25:24;;;;;;;18.00;2.83;;;8.50;99.90;;;;;;5056762;28;20028;-69
2023/03/13 01:27:50;;;;;;;13.02;2.75;;;8.70;99.90;;;;;;5057787;28;20108;-68
2023/03/13 01:30:16;;;;;;;17.95;2.63;;;8.70;99.90;;;;;;5057049;28;20085;-68
2023/03/13 01:32:41;;;;;;;17.02;4.45;;;8.70;99.90;;;;;;5057462;28;20045;-68
2023/03/13 01:35:07;;;;;;;10.73;2.70;;;8.80;99.90;;;;;;5056785;28;20029;-68
2023/03/13 01:37:33;;;;;;;7.85;2.00;;;8.90;99.90;;;;;;5056572;28;20049;-68
2023/03/13 01:39:58;;;;;;;17.05;2.60;;;8.90;99.90;;;;;;5057182;28;20025;-68
2023/03/13 01:42:25;;;;;;;20.80;3.15;;;9.10;99.90;;;;;;5057426;28;20031;-68
2023/03/13 01:44:55;;;;;;;16.13;2.45;;;9.10;99.90;;;;;;5056778;28;20017;-68
2023/03/13 01:47:22;;;;;;;17.13;3.07;;;9.10;99.90;;;;;;5057341;28;20044;-68
2023/03/13 01:49:50;;;;;;;12.75;2.80;;;9.00;99.90;;;;;;5057144;28;20060;-68
2023/03/13 01:52:29;;;;;;;12.02;2.53;;;9.10;99.90;;;;;;5057248;28;20083;-68
2023/03/13 01:55:12;;;;;;;15.20;3.72;;;9.10;99.90;;;;;;5056221;28;20159;-68
2023/03/13 01:57:45;;;;;;;15.23;2.75;;;9.00;99.90;;;;;;5056547;28;20017;-68
2023/03/13 02:00:18;;;;;;;29.35;3.00;;;9.10;99.90;;;;;;5057451;28;20028;-68
2023/03/13 02:02:48;;;;;;;15.55;3.05;;;9.20;99.90;;;;;;5056842;28;20025;-68
2023/03/13 02:05:16;;;;;;;17.65;2.58;;;9.10;99.90;;;;;;5056744;28;20051;-68
2023/03/13 02:07:53;;;;;;;21.80;3.78;;;9.10;99.90;;;;;;5056153;28;20031;-68
2023/03/13 02:10:20;;;;;;;10.75;2.28;;;9.20;99.90;;;;;;5057049;28;20028;-68
2023/03/13 02:12:48;;;;;;;9.65;3.00;;;9.10;99.90;;;;;;5056948;28;20025;-68
2023/03/13 02:15:19;;;;;;;17.50;3.35;;;9.20;99.90;;;;;;5056262;28;20098;-69
2023/03/13 02:17:47;;;;;;;14.07;3.10;;;9.20;99.90;;;;;;5056216;28;20021;-69
2023/03/13 02:20:14;;;;;;;15.93;3.13;;;9.30;99.90;;;;;;5055986;28;20036;-69
2023/03/13 02:23:02;;;;;;;15.23;2.25;;;9.40;99.90;;;;;;5055827;28;20052;-69
2023/03/13 02:25:42;;;;;;;13.02;2.75;;;9.40;99.90;;;;;;5055794;28;20107;-69
2023/03/13 02:28:22;;;;;;;10.85;2.70;;;9.30;99.90;;;;;;5056714;28;20024;-69
2023/03/13 02:30:52;;;;;;;15.07;2.20;;;9.30;99.90;;;;;;5055901;28;20053;-68
2023/03/13 02:33:19;;;;;;;13.10;2.05;;;9.10;99.90;;;;;;5057197;28;20075;-68
2023/03/13 02:35:46;;;;;;;17.73;2.78;;;9.10;99.90;;;;;;5055835;28;20076;-68
2023/03/13 02:38:16;;;;;;;18.80;2.38;;;9.10;99.90;;;;;;5056012;28;20048;-68
2023/03/13 02:40:45;;;;;;;23.75;2.83;;;9.10;99.90;;;;;;5055854;28;20089;-68
2023/03/13 02:43:30;;;;;;;16.15;3.35;;;9.10;99.90;;;;;;5056914;28;20017;-68
2023/03/13 02:46:05;;;;;;;18.27;3.72;;;9.10;99.90;;;;;;5056558;28;20051;-68
2023/03/13 02:48:38;;;;;;;22.33;2.80;;;9.00;99.90;;;;;;5056613;28;20021;-68
2023/03/13 02:51:11;;;;;;;15.43;2.65;;;9.00;99.90;;;;;;5056614;28;20028;-68
2023/03/13 02:53:37;;;;;;;14.68;3.47;;;9.10;99.90;;;;;;5055665;28;20021;-68
2023/03/13 02:56:03;;;;;;;21.85;2.85;;;9.10;99.90;;;;;;5055959;28;20021;-67
2023/03/13 02:58:37;;;;;;;14.70;2.47;;;9.20;99.90;;;;;;5056111;28;20021;-67
2023/03/13 03:01:06;;;;;;;12.68;2.33;;;9.10;99.90;;;;;;5056284;28;20025;-68
2023/03/13 03:03:38;;;;;;;20.05;3.35;;;9.00;99.90;;;;;;5056501;28;20052;-68
2023/03/13 03:06:05;;;;;;;20.95;2.60;;;9.00;99.90;;;;;;5055688;28;20029;-68
2023/03/13 03:08:31;;;;;;;19.45;3.40;;;9.00;99.90;;;;;;5057121;28;20067;-68
2023/03/13 03:10:57;;;;;;;14.05;2.53;;;9.00;99.90;;;;;;5060417;28;20021;-68
2023/03/13 03:13:22;;;;;;;13.80;2.78;;;9.00;99.90;;;;;;5059241;28;20163;-67
2023/03/13 03:15:48;;;;;;;19.73;3.72;;;9.00;99.90;;;;;;5060330;28;20029;-68
2023/03/13 03:18:13;;;;;;;17.95;3.78;;;9.10;99.90;;;;;;5059086;28;20030;-67
2023/03/13 03:20:39;;;;;;;16.55;2.90;;;9.00;99.90;;;;;;5059147;28;20036;-68
2023/03/13 03:23:04;;;;;;;8.50;1.83;;;9.00;99.90;;;;;;5060031;28;20080;-68
2023/03/13 03:25:30;;;;;;;12.32;2.88;;;9.10;99.90;;;;;;5059751;28;20021;-68
2023/03/13 03:27:55;;;;;;;18.23;2.50;;;9.10;99.90;;;;;;5058950;28;20047;-68
2023/03/13 03:30:21;;;;;;;13.05;2.85;;;9.10;99.90;;;;;;5059253;28;20029;-69
2023/03/13 03:32:46;;;;;;;11.73;2.42;;;9.10;99.90;;;;;;5058911;28;20119;-69
2023/03/13 03:35:12;;;;;;;13.48;3.10;;;9.10;99.90;;;;;;5059892;28;20063;-69
2023/03/13 03:37:38;;;;;;;13.85;2.83;;;9.10;99.90;;;;;;5059789;28;20025;-68
2023/03/13 03:40:05;;;;;;;23.05;2.95;;;9.10;99.90;;;;;;5059652;28;20045;-68
2023/03/13 03:42:31;;;;;;;7.05;2.70;;;9.10;99.90;;;;;;5058485;28;20077;-68
2023/03/13 03:44:56;;;;;;;11.40;2.58;;;9.20;99.90;;;;;;5058812;28;20028;-68
2023/03/13 03:47:22;;;;;;;9.15;1.77;;;9.20;99.90;;;;;;5058973;28;20051;-68
2023/03/13 03:49:47;;;;;;;13.95;2.67;;;9.20;99.90;;;;;;5058799;28;20029;-68
2023/03/13 03:52:13;;;;;;;10.05;2.58;;;9.20;99.90;;;;;;5059107;28;20025;-68
2023/03/13 03:54:38;;;;;;;16.65;2.33;;;9.20;99.90;;;;;;5058333;28;20034;-68
2023/03/13 03:57:04;;;;;;;19.30;3.40;;;9.20;99.90;;;;;;5058553;28;20021;-68
2023/03/13 03:59:29;;;;;;;16.30;2.55;;;9.20;99.90;;;;;;5059154;28;20067;-68
2023/03/13 04:01:55;;;;;;;16.55;2.30;;;9.20;99.90;;;;;;5058180;28;20017;-68
2023/03/13 04:04:20;;;;;;;25.23;3.05;;;9.20;99.90;;;;;;5058374;28;20036;-68
2023/03/13 04:06:46;;;;;;;17.55;2.50;;;9.20;99.90;;;;;;5059068;28;20021;-68
2023/03/13 04:09:11;;;;;;;19.70;2.53;;;9.20;99.90;;;;;;5058284;28;20024;-68
2023/03/13 04:11:37;;;;;;;12.75;2.58;;;9.20;99.90;;;;;;5058215;28;20021;-68
2023/03/13 04:14:03;;;;;;;16.63;2.80;;;9.20;99.90;;;;;;5058858;28;20029;-68
2023/03/13 04:16:28;;;;;;;12.18;1.98;;;9.20;99.90;;;;;;5058189;28;20116;-68
2023/03/13 04:18:54;;;;;;;14.80;2.05;;;9.20;99.90;;;;;;5057935;28;20171;-68
2023/03/13 04:21:19;;;;;;;9.73;1.85;;;9.30;99.90;;;;;;5057149;28;20079;-68
2023/03/13 04:23:45;;;;;;;12.38;2.72;;;9.30;99.90;;;;;;5057851;28;20033;-68
2023/03/13 04:26:10;;;;;;;14.73;2.63;;;9.20;99.90;;;;;;5058206;28;20109;-68
2023/03/13 04:28:36;;;;;;;10.65;2.00;;;9.20;99.90;;;;;;5058325;28;20047;-68
2023/03/13 04:31:01;;;;;;;11.00;2.25;;;9.30;99.90;;;;;;5058296;28;20040;-68
2023/03/13 04:33:27;;;;;;;8.02;2.30;;;9.30;99.90;;;;;;5057730;28;20033;-68
2023/03/13 04:35:52;;;;;;;12.35;2.08;;;9.30;99.90;;;;;;5057975;28;20063;-68
2023/03/13 04:38:18;;;;;;;14.57;2.63;;;9.30;99.90;;;;;;5057608;28;20040;-69
2023/03/13 04:40:45;;;;;;;8.57;2.92;;;9.20;99.90;;;;;;5058518;28;20029;-69
2023/03/13 04:43:10;;;;;;;14.68;2.42;;;9.20;99.90;;;;;;5058290;28;20029;-69
2023/03/13 04:45:36;;;;;;;11.95;2.00;;;9.20;99.90;;;;;;5058085;28;20115;-68
2023/03/13 04:48:01;;;;;;;9.18;2.28;;;9.20;99.90;;;;;;5058336;28;20021;-69
2023/03/13 04:50:27;;;;;;;13.18;2.03;;;9.20;99.90;;;;;;5057761;28;20017;-68
2023/03/13 04:52:52;;;;;;;12.48;2.20;;;9.30;99.90;;;;;;5058119;28;20051;-68
2023/03/13 04:55:18;;;;;;;16.55;2.85;;;9.20;99.90;;;;;;5057344;28;20033;-68
2023/03/13 04:57:43;;;;;;;12.77;2.20;;;9.20;99.90;;;;;;5058369;28;20033;-69
2023/03/13 05:00:10;;;;;;;12.27;2.33;;;9.30;99.90;;;;;;5057352;28;20025;-69
2023/03/13 05:02:36;;;;;;;7.65;2.67;;;9.30;99.90;;;;;;5056911;28;20029;-68
2023/03/13 05:05:01;;;;;;;10.52;2.97;;;9.30;99.90;;;;;;5057479;28;20039;-68
2023/03/13 05:07:27;;;;;;;14.98;2.42;;;9.40;99.90;;;;;;5057071;28;20017;-68
2023/03/13 05:09:52;;;;;;;13.75;2.83;;;9.40;99.90;;;;;;5057925;28;20021;-68
2023/03/13 05:12:18;;;;;;;18.30;2.88;;;9.40;99.90;;;;;;5057879;28;20036;-68
2023/03/13 05:14:43;;;;;;;9.73;3.00;;;9.40;99.90;;;;;;5057223;28;20028;-68
2023/03/13 05:17:09;;;;;;;13.02;2.47;;;9.40;99.90;;;;;;5056807;28;20017;-68
2023/03/13 05:19:35;;;;;;;6.75;2.35;;;9.40;99.90;;;;;;5058146;28;20045;-68
2023/03/13 05:22:01;;;;;;;9.73;2.13;;;9.40;99.90;;;;;;5056866;28;20075;-68
2023/03/13 05:24:26;;;;;;;12.63;2.63;;;9.40;99.90;;;;;;5056961;28;20028;-68
2023/03/13 05:26:52;;;;;;;12.13;2.53;;;9.50;99.90;;;;;;5056822;28;20027;-68
2023/03/13 05:29:17;;;;;;;12.18;2.92;;;9.50;99.90;;;;;;5056669;28;20025;-68
2023/03/13 05:31:43;;;;;;;6.90;2.03;;;9.50;99.90;;;;;;5056545;28;20028;-68
2023/03/13 05:34:08;;;;;;;7.90;2.38;;;9.60;99.90;;;;;;5056513;28;20025;-68
2023/03/13 05:36:34;;;;;;;7.00;2.65;;;9.60;99.90;;;;;;5057744;28;20031;-68
2023/03/13 05:38:59;;;;;;;4.53;1.65;;;9.60;99.90;;;;;;5056566;28;20028;-68
2023/03/13 05:41:25;;;;;;;8.80;2.28;;;9.70;99.90;;;;;;5056429;28;20029;-68
2023/03/13 05:43:50;;;;;;;12.50;2.10;;;9.70;99.90;;;;;;5056336;28;20078;-68
2023/03/13 05:46:16;;;;;;;9.02;2.15;;;9.70;99.90;;;;;;5057330;28;20025;-68
2023/03/13 05:48:44;;;;;;;6.90;1.95;;;9.80;99.90;;;;;;5056238;28;20025;-68
2023/03/13 05:51:09;;;;;;;6.50;2.30;;;9.80;99.90;;;;;;5056393;28;20025;-68
2023/03/13 05:53:35;;;;;;;8.15;2.10;;;9.80;99.90;;;;;;5057073;28;20040;-68
2023/03/13 05:56:00;;;;;;;9.00;1.85;;;9.80;99.90;;;;;;5056347;28;20100;-68
2023/03/13 05:58:26;;;;;;;7.85;2.17;;;9.90;99.90;;;;;;5057180;28;20025;-68
2023/03/13 06:00:51;;;;;;;4.90;2.20;;;9.90;99.90;;;;;;5056056;28;20115;-68
2023/03/13 06:03:17;;;;;;;12.00;2.85;;;10.00;99.90;;;;;;5056532;28;20102;-68
2023/03/13 06:05:42;;;;;;;5.28;1.98;;;10.00;99.90;;;;;;5055911;28;20107;-68
2023/03/13 06:08:08;;;;;;;13.80;2.80;;;10.00;99.90;;;;;;5055957;28;20025;-68
2023/03/13 06:10:33;;;;;;;4.47;2.33;;;10.10;99.90;;;;;;5056695;28;20017;-68
2023/03/13 06:12:59;;;;;;;10.23;2.75;;;10.10;99.90;;;;;;5056295;28;20021;-68
2023/03/13 06:15:25;;;;;;;6.63;2.42;;;10.10;99.90;;;;;;5056008;28;20035;-68
2023/03/13 06:17:50;;;;;;;8.55;2.47;;;10.00;99.90;;;;;;5056309;28;20071;-68
2023/03/13 06:20:16;;;;;;;6.15;3.00;;;10.00;99.90;;;;;;5055943;28;20036;-68
2023/03/13 06:22:42;;;;;;;9.30;2.60;;;10.10;99.90;;;;;;5057033;28;20025;-68
2023/03/13 06:25:08;;;;;;;12.75;3.78;;;10.10;99.90;;;;;;5056733;28;20056;-68
2023/03/13 06:27:34;;;;;;;7.70;3.50;;;10.10;99.90;;;;;;5055840;28;20028;-68
2023/03/13 06:29:59;;;;;;;8.95;3.58;;;10.10;99.90;;;;;;5056999;28;20041;-68
2023/03/13 06:32:26;;;;;;;14.80;3.88;;;10.00;99.90;;;;;;5056134;28;20049;-68
2023/03/13 06:34:51;;;;;;;10.70;4.50;;;10.00;99.90;;;;;;5056713;28;20020;-68
2023/03/13 06:37:17;;;;;;;10.68;3.67;;;10.10;99.90;;;;;;5056715;28;20025;-68
2023/03/13 06:39:42;;;;;;;9.20;3.97;;;10.10;99.90;;;;;;5055795;28;20047;-68
2023/03/13 06:42:08;;;;;;;9.80;3.90;;;10.10;99.90;;;;;;5056175;28;20025;-68
2023/03/13 06:44:33;;;;;;;8.95;3.88;;;10.00;99.90;;;;;;5058887;28;20078;-68
2023/03/13 06:46:59;;;;;;;16.20;4.22;;;10.10;99.90;;;;;;5060674;28;20048;-68
2023/03/13 06:49:24;;;;;;;12.70;4.03;;;10.00;99.90;;;;;;5059789;28;20021;-68
2023/03/13 06:51:50;;;;;;;14.23;4.07;;;10.10;99.90;;;;;;5059603;28;20021;-68
2023/03/13 06:54:16;;;;;;;9.02;3.92;;;10.10;99.90;;;;;;5060188;28;20024;-68
2023/03/13 06:56:41;;;;;;;9.43;3.95;;;10.20;99.90;;;;;;5059639;28;20124;-68
2023/03/13 06:59:07;;;;;;;6.28;3.47;;;10.20;99.90;;;;;;5059597;28;20025;-68
2023/03/13 07:01:32;;;;;;;7.63;4.00;;;10.30;99.90;;;;;;5059822;28;20031;-68
2023/03/13 07:03:58;;;;;;;7.82;3.75;;;10.30;99.90;;;;;;5060141;28;20112;-68
2023/03/13 07:06:23;;;;;;;7.22;3.10;;;10.30;99.90;;;;;;5060504;28;20027;-68
2023/03/13 07:08:49;;;;;;;7.03;3.28;;;10.30;99.90;;;;;;5059333;28;20025;-69
2023/03/13 07:11:15;;;;;;;10.60;3.38;;;10.30;99.90;;;;;;5059554;28;20093;-68
2023/03/13 07:13:40;;;;;;;8.73;3.10;;;10.40;99.90;;;;;;5060063;28;20021;-69
2023/03/13 07:16:09;;;;;;;10.43;4.05;;;10.40;99.90;;;;;;5059434;28;20078;-69
2023/03/13 07:18:35;;;;;;;5.63;3.58;;;10.40;99.90;;;;;;5040421;28;20030;-69
2023/03/13 07:21:05;;;;;;;6.70;3.75;;;10.50;99.90;;;;;;5038995;28;20025;-68
2023/03/13 07:23:32;;;;;;;8.32;3.67;;;10.60;99.90;;;;;;5040174;28;20053;-68
2023/03/13 07:26:00;;;;;;;6.97;3.53;;;10.60;99.90;;;;;;5039996;28;20021;-68
2023/03/13 07:28:27;;;;;;;8.40;3.30;;;10.60;99.90;;;;;;5039962;28;20140;-68
2023/03/13 07:30:53;;;;;;;6.13;3.33;;;10.60;99.90;;;;;;5039943;28;20025;-68
2023/03/13 07:33:18;;;;;;;6.25;3.10;;;10.50;99.90;;;;;;5038945;28;20026;-68
2023/03/13 07:35:49;;;;;;;5.82;3.60;;;10.60;99.90;;;;;;5040010;28;20112;-68
2023/03/13 07:38:14;;;;;;;5.00;3.13;;;10.60;99.90;;;;;;5038942;28;20030;-68
2023/03/13 07:40:47;;;;;;;6.05;3.53;;;10.50;99.90;;;;;;5039689;28;20025;-68
2023/03/13 07:43:12;;;;;;;4.82;2.80;;;10.50;99.90;;;;;;5038784;28;20060;-68
2023/03/13 07:45:38;;;;;;;4.78;2.67;;;10.50;99.90;;;;;;5038671;28;20024;-68
2023/03/13 07:48:03;;;;;;;4.20;2.22;;;10.80;99.90;;;;;;5038704;28;20076;-68
2023/03/13 07:50:29;;;;;;;9.25;2.30;;;11.00;99.90;;;;;;5039102;28;20044;-68
2023/03/13 07:52:54;;;;;;;5.22;1.80;;;11.10;99.90;;;;;;5038583;28;20030;-68
2023/03/13 07:55:20;;;;;;;1.45;1.10;;;11.30;99.90;;;;;;5037285;28;20026;-67
2023/03/13 07:57:45;;;;;;;3.45;1.25;;;11.40;99.90;;;;;;5038483;28;20038;-68
2023/03/13 08:00:15;;;;;;;4.30;1.50;;;11.50;99.90;;;;;;5038413;28;20030;-68
2023/03/13 08:02:40;;;;;;;7.15;1.88;;;11.70;99.90;;;;;;5039514;28;20021;-68
2023/03/13 08:05:06;;;;;;;0.90;0.73;;;11.70;99.90;;;;;;5038758;28;20122;-68
2023/03/13 08:07:32;;;;;;;2.28;0.93;;;11.80;99.90;;;;;;5038369;28;20072;-68
2023/03/13 08:09:57;;;;;;;1.20;0.80;;;11.90;99.90;;;;;;5038471;28;20025;-68
2023/03/13 08:12:23;;;;;;;0.60;0.60;;;12.00;99.90;;;;;;5038558;28;20026;-68
2023/03/13 08:14:48;;;;;;;1.95;0.65;;;12.10;99.90;;;;;;5038255;28;20036;-68
2023/03/13 08:17:14;;;;;;;1.35;0.47;;;12.10;99.90;;;;;;5038393;28;20056;-67
2023/03/13 08:19:39;;;;;;;0.82;0.77;;;12.20;99.90;;;;;;5038402;28;20029;-68
2023/03/13 08:22:05;;;;;;;0.95;0.70;;;12.30;99.90;;;;;;5039116;28;20018;-67
2023/03/13 08:24:30;;;;;;;0.85;0.70;;;12.30;99.90;;;;;;5037878;28;20021;-67
2023/03/13 08:26:56;;;;;;;1.55;0.68;;;12.40;99.90;;;;;;5039131;28;20056;-68
2023/03/13 08:29:21;;;;;;;2.15;0.88;;;12.50;99.90;;;;;;5038310;28;20040;-67
2023/03/13 08:31:48;;;;;;;0.75;0.50;;;12.50;99.90;;;;;;5037895;28;20053;-67
2023/03/13 08:34:16;;;;;;;1.33;0.80;;;12.60;99.90;;;;;;5037771;28;20026;-67
2023/03/13 08:36:42;;;;;;;1.52;0.77;;;12.70;99.90;;;;;;5037618;28;20036;-67
2023/03/13 08:39:16;;;;;;;1.02;0.85;;;12.70;99.90;;;;;;5038667;28;20120;-68
2023/03/13 08:41:41;;;;;;;3.10;1.02;;;12.80;99.90;;;;;;5037775;28;20033;-67
2023/03/13 08:44:10;;;;;;;2.95;0.88;;;12.80;99.90;;;;;;5038295;28;20075;-67
2023/03/13 08:46:36;;;;;;;2.08;0.98;;;12.80;99.90;;;;;;5038313;28;20047;-67
2023/03/13 08:49:03;;;;;;;1.95;0.85;;;12.90;99.90;;;;;;5038780;28;20018;-67
2023/03/13 08:51:29;;;;;;;2.53;1.02;;;12.90;99.90;;;;;;5037466;28;20025;-67
2023/03/13 08:53:55;;;;;;;2.90;1.10;;;13.00;99.90;;;;;;5037586;28;20108;-67
2023/03/13 08:56:23;;;;;;;2.97;1.20;;;13.00;99.90;;;;;;5036265;28;20029;-68
2023/03/13 08:58:50;;;;;;;3.25;0.98;;;13.00;99.90;;;;;;5035491;28;20084;-68
2023/03/13 09:01:16;;;;;;;2.22;1.00;;;13.10;99.90;;;;;;5036300;28;20022;-68
2023/03/13 09:03:42;;;;;;;5.30;1.13;;;13.10;99.90;;;;;;5036219;28;20041;-67
2023/03/13 09:06:08;;;;;;;4.47;1.10;;;13.20;99.90;;;;;;5036114;28;20029;-68
2023/03/13 09:08:35;;;;;;;4.82;1.15;;;13.40;99.90;;;;;;5037611;28;20036;-67
2023/03/13 09:11:06;;;;;;;1.67;1.20;;;13.50;99.90;;;;;;5037242;28;20022;-67
2023/03/13 09:13:35;;;;;;;1.98;0.90;;;13.60;99.90;;;;;;5037011;28;20075;-68
2023/03/13 09:16:03;;;;;;;2.67;0.95;;;13.70;99.90;;;;;;5037125;28;20040;-66
2023/03/13 09:18:29;;;;;;;1.80;0.90;;;13.70;99.90;;;;;;5037836;28;20029;-67
2023/03/13 09:20:55;;;;;;;1.85;1.30;;;13.80;99.90;;;;;;5037907;28;20039;-66
2023/03/13 09:23:21;;;;;;;3.88;1.15;;;13.80;99.90;;;;;;5038006;28;20116;-66
2023/03/13 09:25:48;;;;;;;4.57;0.95;;;13.90;99.90;;;;;;5036698;28;20032;-66
2023/03/13 09:28:14;;;;;;;3.28;1.25;;;13.90;99.90;;;;;;5036951;28;20087;-66
2023/03/13 09:30:39;;;;;;;2.80;1.00;;;13.90;99.90;;;;;;5036708;28;20017;-66
2023/03/13 09:33:05;;;;;;;4.80;1.15;;;13.80;99.90;;;;;;5036648;28;20025;-66
2023/03/13 09:35:30;;;;;;;1.45;1.05;;;13.80;99.90;;;;;;5036680;28;20097;-66
2023/03/13 09:37:56;;;;;;;2.53;1.30;;;13.80;99.90;;;;;;5036536;28;20167;-67
2023/03/13 09:40:24;;;;;;;2.17;0.93;;;13.80;99.90;;;;;;5036686;28;20025;-67
2023/03/13 09:42:53;;;;;;;2.22;1.25;;;13.80;99.90;;;;;;5036622;28;20025;-67
2023/03/13 09:45:32;;;;;;;2.92;1.13;;;13.80;99.90;;;;;;5036500;28;20099;-67
2023/03/13 09:48:10;;;;;;;3.63;1.60;;;13.90;99.90;;;;;;5036761;28;20051;-67
2023/03/13 09:50:42;;;;;;;6.57;2.28;;;13.90;99.90;;;;;;5036539;28;20028;-67
2023/03/13 09:53:24;;;;;;;1.63;1.10;;;13.90;99.90;;;;;;5036652;28;20026;-67
2023/03/13 09:55:51;;;;;;;4.50;1.40;;;13.90;99.90;;;;;;5036557;28;20103;-67
2023/03/13 09:58:24;;;;;;;4.00;1.20;;;14.00;99.90;;;;;;5036415;28;20036;-67
2023/03/13 10:01:10;;;;;;;2.78;1.20;;;14.00;99.90;;;;;;5037059;28;20059;-67
2023/03/13 10:03:47;;;;;;;3.72;1.27;;;14.00;99.90;;;;;;5035765;28;20231;-67
2023/03/13 10:06:20;;;;;;;2.67;1.25;;;14.00;99.90;;;;;;5037292;28;20025;-67
2023/03/13 10:08:46;;;;;;;2.00;1.30;;;14.10;99.90;;;;;;5037039;28;20074;-67
2023/03/13 10:11:45;;;;;;;1.80;1.30;;;14.10;99.90;;;;;;5036134;28;20022;-67
2023/03/13 10:14:58;;;;;;;4.05;1.25;;;14.20;99.90;;;;;;5026079;28;20026;-67
2023/03/13 10:17:30;;;;;;;1.50;0.95;;;14.20;99.90;;;;;;5036130;28;20040;-67
2023/03/13 10:20:14;;;;;;;2.75;1.38;;;14.30;99.90;;;;;;5036957;28;20018;-67
2023/03/13 10:22:42;;;;;;;2.92;1.30;;;14.50;99.90;;;;;;5036859;28;20025;-67
2023/03/13 10:25:19;;;;;;;2.95;1.10;;;14.60;99.90;;;;;;5036572;28;20087;-67
2023/03/13 10:27:50;;;;;;;3.08;1.23;;;14.60;99.90;;;;;;5036031;28;20051;-67
2023/03/13 10:30:42;;;;;;;2.25;1.27;;;14.60;99.90;;;;;;5036218;28;20049;-67
2023/03/13 10:33:10;;;;;;;2.95;1.20;;;14.60;99.90;;;;;;5035846;28;20075;-67
2023/03/13 10:35:38;;;;;;;3.20;1.50;;;14.60;99.90;;;;;;5035794;28;20026;-67
2023/03/13 10:38:09;;;;;;;7.40;1.20;;;14.60;99.90;;;;;;5035947;28;20030;-67
2023/03/13 10:40:35;;;;;;;;;;;14.60;99.90;;;;;;5037329;28;20061;-67
2023/03/13 10:43:11;;;;;;;3.20;1.17;;;14.60;99.90;;;;;;5036790;28;19959;-67
2023/03/13 10:45:37;;;;;;;3.30;1.30;;;14.60;99.90;;;;;;5035814;28;20030;-67
2023/03/13 10:48:20;;;;;;;4.50;1.27;;;14.60;99.90;;;;;;5035830;28;20028;-67
2023/03/13 10:50:48;;;;;;;1.73;1.10;;;14.60;99.90;;;;;;5036678;28;20033;-67
2023/03/13 10:53:29;;;;;;;2.35;1.00;;;14.60;99.90;;;;;;5035753;28;20028;-67
2023/03/13 10:56:02;;;;;;;2.78;1.10;;;14.60;99.90;;;;;;5036773;28;20030;-67
2023/03/13 10:58:34;;;;;;;2.92;1.20;;;14.60;99.90;;;;;;5035818;28;20025;-67
2023/03/13 11:01:20;;;;;;;1.50;0.95;;;14.60;99.90;;;;;;5036868;28;20025;-67
2023/03/13 11:03:48;;;;;;;2.38;0.88;;;14.60;99.90;;;;;;5036089;28;20040;-67
2023/03/13 11:06:25;;;;;;;3.22;1.10;;;14.60;99.90;;;;;;5036566;28;20029;-67
2023/03/13 11:08:59;;;;;;;2.45;1.30;;;14.60;99.90;;;;;;5036120;28;20022;-67
2023/03/13 11:11:29;;;;;;;3.15;1.58;;;14.60;99.90;;;;;;5036483;28;20025;-67
2023/03/13 11:14:06;;;;;;;1.02;0.90;;;14.60;99.90;;;;;;5035683;28;20028;-67
2023/03/13 11:16:37;;;;;;;2.30;1.30;;;14.60;99.90;;;;;;5036285;28;20118;-67
2023/03/13 11:19:12;;;;;;;2.03;0.90;;;14.70;99.90;;;;;;5036032;28;20116;-67
2023/03/13 11:22:07;;;;;;;1.73;0.90;;;14.70;99.90;;;;;;5035774;28;20110;-67
2023/03/13 11:24:48;;;;;;;3.08;0.98;;;14.70;99.90;;;;;;5032479;28;20037;-67
2023/03/13 11:27:46;;;;;;;1.13;1.00;;;14.70;99.90;;;;;;5035540;28;20026;-67
2023/03/13 11:30:15;;;;;;;2.25;0.98;;;14.60;99.90;;;;;;5038448;28;20032;-67
2023/03/13 11:32:57;;;;;;;1.40;1.05;;;14.60;99.90;;;;;;5040010;28;20017;-67
2023/03/13 11:35:49;;;;;;;2.80;0.93;;;14.60;99.90;;;;;;5039855;28;20095;-67
2023/03/13 11:38:37;;;;;;;2.17;1.05;;;14.60;99.90;;;;;;5039044;28;20030;-68
2023/03/13 11:41:38;;;;;;;2.67;0.75;;;14.60;99.90;;;;;;5039685;28;20022;-68
2023/03/13 11:44:29;;;;;;;1.58;1.10;;;14.50;99.90;;;;;;5001528;28;20034;-68
2023/03/13 11:47:15;;;;;;;3.08;1.08;;;14.40;99.90;;;;;;5018401;28;20073;-67
2023/03/13 11:49:58;;;;;;;4.72;1.10;;;14.40;99.90;;;;;;5018531;28;20054;-67
2023/03/13 11:52:57;;;;;;;1.63;1.20;;;14.40;99.90;;;;;;5018467;28;20027;-68
2023/03/13 11:55:49;;;;;;;3.70;1.75;;;14.40;99.90;;;;;;5001636;28;20025;-68
2023/03/13 11:58:44;;;;;;;2.80;1.55;;;14.30;99.90;;;;;;5018514;28;20021;-68
2023/03/13 12:01:15;;;;;;;4.47;0.80;;;14.30;99.90;;;;;;5018186;28;20034;-67
2023/03/13 12:03:41;;;;;;;;;;;14.30;99.90;;;;;;5017922;28;20026;-68
2023/03/13 12:06:22;;;;;;;2.83;1.70;;;14.30;99.90;;;;;;5001657;28;19920;-68
2023/03/13 12:08:53;;;;;;;5.45;2.30;;;14.30;99.90;;;;;;5017875;28;20061;-68
2023/03/13 12:11:28;;;;;;;2.80;1.60;;;14.30;99.90;;;;;;5017933;28;20080;-68
2023/03/13 12:14:31;;;;;;;4.65;3.05;;;14.30;99.90;;;;;;5017902;28;20033;-68
2023/03/13 12:17:02;;;;;;;2.80;1.60;;;14.30;99.90;;;;;;5018051;28;20033;-67
2023/03/13 12:20:00;;;;;;;3.97;1.40;;;14.30;99.90;;;;;;5031766;28;20044;-67
2023/03/13 12:22:34;;;;;;;2.42;1.70;;;14.20;99.90;;;;;;5034898;28;20040;-68
2023/03/13 12:25:09;;;;;;;2.38;0.75;;;14.20;99.90;;;;;;5038947;28;20021;-68
2023/03/13 12:27:46;;;;;;;2.47;1.48;;;14.30;99.90;;;;;;5037923;28;20026;-68
2023/03/13 12:30:37;;;;;;;4.95;1.75;;;14.30;99.90;;;;;;5038893;28;20021;-69
2023/03/13 12:33:06;;;;;;;3.10;0.90;;;14.30;99.90;;;;;;5018411;28;20037;-68
2023/03/13 12:36:11;;;;;;;1.42;1.23;;;14.30;99.90;;;;;;5037759;28;20034;-68
2023/03/13 12:38:52;;;;;;;1.55;0.90;;;14.30;99.90;;;;;;5037737;28;20033;-68
2023/03/13 12:41:23;;;;;;;;;;;14.30;99.90;;;;;;5038321;28;20033;-68
2023/03/13 12:43:52;;;;;;;1.20;1.10;;;14.30;99.90;;;;;;5037498;28;19916;-68
2023/03/13 12:46:37;;;;;;;2.33;0.93;;;14.40;99.90;;;;;;5038950;28;20029;-68
2023/03/13 12:49:33;;;;;;;4.45;1.08;;;14.30;99.90;;;;;;5038781;28;20075;-68
2023/03/13 12:52:15;;;;;;;1.73;1.08;;;14.30;99.90;;;;;;5037561;28;20033;-69
2023/03/13 12:55:03;;;;;;;1.55;0.90;;;14.30;99.90;;;;;;5037512;28;20018;-68
2023/03/13 12:58:14;;;;;;;2.58;0.90;;;14.30;99.90;;;;;;5037734;28;20037;-68
2023/03/13 13:00:43;;;;;;;2.10;1.00;;;14.30;99.90;;;;;;5030703;28;20123;-68
2023/03/13 13:03:30;;;;;;;1.23;1.08;;;14.40;99.90;;;;;;5038161;28;20036;-68